Time;durP1;ratioP1;P1;durP2;ratioP2;P2;SDS_P1;SDS_P2;PMS_P1;PMS_P2;Temp;Humidity;BMP_temperature;BMP_pressure;BME280_temperature;BME280_humidity;BME280_pressure;Samples;Min_cycle;Max_cycle;Signal;HPM_P1;HPM_P2
2023/12/05 00:00:00;;;;;;;;;1.00;1.00;;;;;12.62;100.00;99329.63;2073743;28;46824;-52
2023/12/05 00:01:00;;;;;;;;;1.00;1.00;;;;;12.62;100.00;99334.97;2079445;28;46366;-53
2023/12/05 00:02:01;;;;;;;;;1.00;1.00;;;;;12.61;100.00;99330.59;2079432;28;46282;-53
2023/12/05 00:03:02;;;;;;;;;0.00;0.00;;;;;12.61;100.00;99328.78;2079188;28;46433;-51
2023/12/05 00:04:03;;;;;;;;;1.00;1.00;;;;;12.61;100.00;99319.94;2077957;28;46222;-49
2023/12/05 00:05:04;;;;;;;;;1.00;0.00;;;;;12.61;100.00;99319.94;2079556;28;46838;-54
2023/12/05 00:06:09;;;;;;;;;1.00;1.00;;;;;12.62;100.00;99332.31;2079813;28;47354;-51
2023/12/05 00:07:09;;;;;;;;;1.00;1.00;;;;;12.60;100.00;99329.72;2076890;28;46866;-51
2023/12/05 00:08:10;;;;;;;;;0.00;0.00;;;;;12.59;100.00;99327.16;2071528;28;46219;-54
2023/12/05 00:09:11;;;;;;;;;1.67;1.00;;;;;12.57;100.00;99334.31;2083770;28;47159;-54
2023/12/05 00:10:11;;;;;;;;;2.50;1.00;;;;;12.57;100.00;99326.34;2089104;28;46551;-51
2023/12/05 00:11:12;;;;;;;;;1.00;1.00;;;;;12.57;100.00;99332.53;2089223;28;46595;-50
2023/12/05 00:12:13;;;;;;;;;2.00;0.67;;;;;13.27;100.00;99316.44;2088681;28;46370;-52
2023/12/05 00:13:14;;;;;;;;;0.00;0.00;;;;;13.34;100.00;99323.13;2089090;28;46569;-54
2023/12/05 00:14:14;;;;;;;;;0.00;0.00;;;;;13.39;100.00;99316.63;2089176;28;46156;-52
2023/12/05 00:15:14;;;;;;;;;0.00;0.00;;;;;13.38;100.00;99322.03;2087045;28;46238;-48
2023/12/05 00:16:15;;;;;;;;;2.00;0.33;;;;;13.38;100.00;99316.72;2087860;28;46223;-50
2023/12/05 00:17:15;;;;;;;;;1.00;1.00;;;;;13.43;100.00;99327.97;2084180;28;46882;-53
2023/12/05 00:18:15;;;;;;;;;0.00;0.00;;;;;13.46;100.00;99325.97;2082412;28;46694;-52
2023/12/05 00:19:16;;;;;;;;;0.00;0.00;;;;;13.47;100.00;99319.72;2089667;28;46788;-53
2023/12/05 00:20:16;;;;;;;;;0.00;0.00;;;;;13.47;100.00;99332.19;2089184;28;46572;-56
2023/12/05 00:21:17;;;;;;;;;1.67;1.00;;;;;13.48;100.00;99321.44;2088792;28;47173;-55
2023/12/05 00:22:17;;;;;;;;;0.00;0.00;;;;;13.45;100.00;99326.06;2088908;28;46200;-47
2023/12/05 00:23:18;;;;;;;;;0.00;0.00;;;;;13.44;100.00;99324.34;2089324;28;46460;-48
2023/12/05 00:24:18;;;;;;;;;1.00;1.00;;;;;13.44;100.00;99335.00;2089183;28;46407;-53
2023/12/05 00:25:19;;;;;;;;;1.00;1.00;;;;;13.32;100.00;99328.53;2088773;28;46198;-53
2023/12/05 00:26:19;;;;;;;;;0.67;0.00;;;;;13.36;100.00;99323.94;2088881;28;46501;-53
2023/12/05 00:27:19;;;;;;;;;1.33;0.67;;;;;13.36;100.00;99327.44;2089281;28;45533;-50
2023/12/05 00:28:19;;;;;;;;;0.67;0.00;;;;;13.42;100.00;99331.56;2089162;28;46950;-48
2023/12/05 00:29:20;;;;;;;;;2.33;0.00;;;;;13.42;100.00;99324.44;2089107;28;46364;-52
2023/12/05 00:30:20;;;;;;;;;0.00;0.00;;;;;13.42;100.00;99334.22;2089503;28;46811;-50
2023/12/05 00:31:21;;;;;;;;;1.00;1.00;;;;;13.40;100.00;99329.00;2086926;28;46641;-53
2023/12/05 00:32:22;;;;;;;;;0.00;0.00;;;;;13.41;100.00;99332.53;2083467;28;46618;-52
2023/12/05 00:33:22;;;;;;;;;0.25;0.25;;;;;13.38;100.00;99330.03;2084500;28;46300;-54
2023/12/05 00:34:23;;;;;;;;;1.00;1.00;;;;;13.41;100.00;99320.06;2082288;28;46146;-52
2023/12/05 00:35:24;;;;;;;;;0.00;0.00;;;;;13.41;100.00;99322.72;2089129;28;46831;-52
2023/12/05 00:36:24;;;;;;;;;1.00;1.00;;;;;13.43;100.00;99331.47;2086739;28;47078;-53
2023/12/05 00:37:25;;;;;;;;;0.33;0.33;;;;;13.45;100.00;99323.41;2087715;28;46432;-54
2023/12/05 00:38:25;;;;;;;;;0.00;0.00;;;;;13.48;100.00;99333.91;2081435;28;47080;-53
2023/12/05 00:39:25;;;;;;;;;0.33;0.00;;;;;13.07;100.00;99333.44;2089889;28;46732;-51
2023/12/05 00:40:29;;;;;;;;;0.67;0.67;;;;;13.21;100.00;99331.81;2089308;28;46788;-52
2023/12/05 00:41:29;;;;;;;;;1.00;1.00;;;;;13.31;100.00;99325.97;2088926;28;46458;-52
2023/12/05 00:42:30;;;;;;;;;1.00;0.00;;;;;13.25;100.00;99332.50;2088878;28;46317;-53
2023/12/05 00:43:30;;;;;;;;;0.00;0.00;;;;;13.42;100.00;99327.09;2089500;28;45881;-54
2023/12/05 00:44:31;;;;;;;;;0.33;0.33;;;;;13.43;100.00;99325.28;2089033;28;46277;-52
2023/12/05 00:45:31;;;;;;;;;0.00;0.00;;;;;13.48;100.00;99334.78;2088880;28;46142;-52
2023/12/05 00:46:31;;;;;;;;;1.00;0.00;;;;;13.49;100.00;99328.50;2088804;28;46233;-53
2023/12/05 00:47:32;;;;;;;;;0.00;0.00;;;;;13.52;100.00;99330.13;2086551;28;46306;-53
2023/12/05 00:48:32;;;;;;;;;0.00;0.00;;;;;13.60;100.00;99332.38;2089083;28;46266;-53
2023/12/05 00:49:35;;;;;;;;;1.67;1.00;;;;;13.64;100.00;99336.56;2089069;28;46614;-50
2023/12/05 00:50:35;;;;;;;;;0.00;0.00;;;;;13.69;100.00;99334.50;2089020;28;46736;-53
2023/12/05 00:51:36;;;;;;;;;0.33;0.00;;;;;13.72;100.00;99328.97;2088617;28;46130;-53
2023/12/05 00:52:36;;;;;;;;;1.00;1.00;;;;;13.74;100.00;99330.63;2089001;28;46210;-51
2023/12/05 00:53:36;;;;;;;;;1.00;1.00;;;;;13.59;100.00;99336.81;2084110;28;46770;-53
2023/12/05 00:54:37;;;;;;;;;0.00;0.00;;;;;13.53;100.00;99331.84;2088728;28;46380;-53
2023/12/05 00:55:37;;;;;;;;;0.33;0.33;;;;;13.52;100.00;99330.97;2088748;28;46348;-55
2023/12/05 00:56:37;;;;;;;;;0.00;0.00;;;;;13.51;100.00;99337.25;2088934;28;46243;-52
2023/12/05 00:57:38;;;;;;;;;0.33;0.33;;;;;13.53;100.00;99337.16;2088662;28;46189;-52
2023/12/05 00:58:38;;;;;;;;;0.00;0.00;;;;;13.51;100.00;99334.59;2089017;28;46281;-55
2023/12/05 00:59:38;;;;;;;;;0.00;0.00;;;;;13.53;100.00;99334.50;2088810;28;46674;-51
2023/12/05 01:00:39;;;;;;;;;1.00;1.00;;;;;13.57;100.00;99327.19;2088694;28;46383;-51
2023/12/05 01:01:39;;;;;;;;;1.00;1.00;;;;;13.58;100.00;99339.56;2088600;28;47599;-52
2023/12/05 01:02:39;;;;;;;;;0.33;0.33;;;;;13.58;100.00;99336.91;2088809;28;46090;-52
2023/12/05 01:03:40;;;;;;;;;2.00;0.00;;;;;13.56;100.00;99342.31;2088713;28;46782;-54
2023/12/05 01:04:40;;;;;;;;;0.00;0.00;;;;;13.54;100.00;99336.22;2086627;28;46410;-51
2023/12/05 01:05:40;;;;;;;;;0.33;0.33;;;;;13.52;100.00;99333.63;2087512;28;46412;-51
2023/12/05 01:06:41;;;;;;;;;0.00;0.00;;;;;13.51;100.00;99342.59;2088678;28;46677;-53
2023/12/05 01:07:41;;;;;;;;;0.00;0.00;;;;;13.49;100.00;99346.28;2088976;28;46254;-50
2023/12/05 01:08:41;;;;;;;;;0.00;0.00;;;;;13.48;100.00;99332.09;2089120;28;46275;-50
2023/12/05 01:09:42;;;;;;;;;0.00;0.00;;;;;13.47;100.00;99341.03;2088715;28;46191;-50
2023/12/05 01:10:42;;;;;;;;;1.00;1.00;;;;;13.50;100.00;99342.69;2088797;28;46599;-54
2023/12/05 01:11:42;;;;;;;;;0.00;0.00;;;;;13.49;100.00;99341.81;2086203;28;46051;-52
2023/12/05 01:12:43;;;;;;;;;0.00;0.00;;;;;13.50;100.00;99345.34;2088512;28;46175;-53
2023/12/05 01:13:43;;;;;;;;;0.00;0.00;;;;;13.51;100.00;99336.41;2088139;28;46204;-52
2023/12/05 01:14:43;;;;;;;;;0.00;0.00;;;;;13.51;100.00;99352.38;2088695;28;46228;-50
2023/12/05 01:15:44;;;;;;;;;0.00;0.00;;;;;13.51;100.00;99336.41;2088295;28;46227;-55
2023/12/05 01:16:44;;;;;;;;;0.00;0.00;;;;;13.44;100.00;99354.53;2077921;28;46228;-51
2023/12/05 01:17:45;;;;;;;;;1.00;0.00;;;;;13.43;100.00;99342.13;2079785;28;46383;-54
2023/12/05 01:18:45;;;;;;;;;0.00;0.00;;;;;13.42;100.00;99337.75;2088915;28;46715;-52
2023/12/05 01:19:45;;;;;;;;;0.00;0.00;;;;;13.42;100.00;99337.75;2088616;28;46155;-54
2023/12/05 01:20:45;;;;;;;;;1.00;1.00;;;;;13.44;100.00;99340.34;2085193;28;46183;-51
2023/12/05 01:21:46;;;;;;;;;0.33;0.00;;;;;13.44;100.00;99341.19;2083871;28;46642;-54
2023/12/05 01:22:46;;;;;;;;;0.00;0.00;;;;;13.50;100.00;99340.88;2085520;28;46589;-52
2023/12/05 01:23:46;;;;;;;;;0.00;0.00;;;;;13.58;100.00;99345.75;2086426;28;46330;-51
2023/12/05 01:24:53;;;;;;;;;0.00;0.00;;;;;13.60;100.00;99345.69;2088608;28;46745;-52
2023/12/05 01:25:53;;;;;;;;;1.00;0.25;;;;;13.61;100.00;99350.94;2088964;28;46875;-54
2023/12/05 01:26:54;;;;;;;;;1.00;1.00;;;;;13.58;100.00;99340.41;2088869;28;46641;-50
2023/12/05 01:27:54;;;;;;;;;0.33;0.33;;;;;13.49;100.00;99346.28;2088766;28;46274;-50
2023/12/05 01:28:55;;;;;;;;;0.00;0.00;;;;;13.50;100.00;99337.34;2088598;28;46041;-53
2023/12/05 01:29:55;;;;;;;;;0.00;0.00;;;;;13.50;100.00;99346.19;2088660;28;46421;-53
2023/12/05 01:30:55;;;;;;;;;0.00;0.00;;;;;13.46;100.00;99349.97;2089001;28;45946;-51
2023/12/05 01:31:56;;;;;;;;;0.00;0.00;;;;;13.50;100.00;99351.53;2087843;28;46102;-47
2023/12/05 01:32:56;;;;;;;;;0.00;0.00;;;;;13.45;100.00;99350.91;2088492;28;46966;-52
2023/12/05 01:33:56;;;;;;;;;0.33;0.00;;;;;13.49;100.00;99354.28;2086620;28;46324;-54
2023/12/05 01:34:57;;;;;;;;;0.00;0.00;;;;;13.52;100.00;99360.28;2088437;28;46262;-51
2023/12/05 01:35:57;;;;;;;;;0.00;0.00;;;;;13.52;100.00;99357.63;2088998;28;46224;-51
2023/12/05 01:36:57;;;;;;;;;0.00;0.00;;;;;13.51;100.00;99352.38;2081238;28;46632;-54
2023/12/05 01:37:58;;;;;;;;;0.00;0.00;;;;;13.54;100.00;99361.06;2084505;28;46623;-55
2023/12/05 01:38:58;;;;;;;;;0.00;0.00;;;;;13.53;100.00;99359.34;2088664;28;46489;-53
2023/12/05 01:39:58;;;;;;;;;0.00;0.00;;;;;13.53;100.00;99362.00;2088754;28;46680;-54
2023/12/05 01:40:59;;;;;;;;;2.00;0.00;;;;;13.53;100.00;99363.81;2096306;28;46333;-50
2023/12/05 01:41:59;;;;;;;;;0.67;0.00;;;;;13.57;100.00;99359.16;2096267;28;46242;-50
2023/12/05 01:43:00;;;;;;;;;0.00;0.00;;;;;13.53;100.00;99356.69;2088276;28;46626;-52
2023/12/05 01:44:00;;;;;;;;;0.00;0.00;;;;;13.55;100.00;99360.13;2088711;28;46333;-53
2023/12/05 01:45:00;;;;;;;;;0.00;0.00;;;;;13.57;100.00;99364.50;2088218;28;46377;-53
2023/12/05 01:46:02;;;;;;;;;0.00;0.00;;;;;13.58;100.00;99363.56;2088339;28;46749;-52
2023/12/05 01:47:03;;;;;;;;;0.00;0.00;;;;;13.59;100.00;99357.28;2088306;28;46288;-53
2023/12/05 01:48:05;;;;;;;;;0.75;0.75;;;;;13.60;100.00;99357.22;2086438;28;46591;-52
2023/12/05 01:49:06;;;;;;;;;0.00;0.00;;;;;13.61;100.00;99366.94;2088745;28;46649;-52
2023/12/05 01:50:21;;;;;;;;;0.00;0.00;;;;;13.60;100.00;99365.22;2088661;28;46546;-51
2023/12/05 01:51:21;;;;;;;;;0.00;0.00;;;;;13.58;100.00;99368.88;2088165;28;46661;-50
2023/12/05 01:52:22;;;;;;;;;0.33;0.00;;;;;13.59;100.00;99363.47;2088537;28;46397;-51
2023/12/05 01:53:23;;;;;;;;;0.00;0.00;;;;;13.60;100.00;99369.69;2086804;28;46919;-51
2023/12/05 01:54:23;;;;;;;;;0.00;0.00;;;;;13.64;100.00;99369.41;2084187;28;46344;-50
2023/12/05 01:55:27;;;;;;;;;0.00;0.00;;;;;13.66;100.00;99377.31;2080436;28;46797;-52
2023/12/05 01:56:28;;;;;;;;;0.00;0.00;;;;;13.66;100.00;99372.84;2082177;28;46521;-49
2023/12/05 01:57:29;;;;;;;;;0.00;0.00;;;;;13.66;100.00;99364.84;2088906;28;46829;-46
2023/12/05 01:58:31;;;;;;;;;0.00;0.00;;;;;13.68;100.00;99373.63;2087552;28;48114;-53
2023/12/05 01:59:32;;;;;;;;;0.00;0.00;;;;;13.70;100.00;99377.06;2087311;28;46234;-49
2023/12/05 02:00:32;;;;;;;;;0.00;0.00;;;;;13.69;100.00;99369.16;2082405;28;46376;-53
2023/12/05 02:01:33;;;;;;;;;1.00;0.00;;;;;13.72;100.00;99374.31;2082165;28;46297;-49
2023/12/05 02:02:35;;;;;;;;;1.00;0.00;;;;;13.72;100.00;99371.63;2088108;28;46824;-52
2023/12/05 02:03:36;;;;;;;;;0.00;0.00;;;;;13.71;100.00;99376.09;2088141;28;46078;-50
2023/12/05 02:04:38;;;;;;;;;0.00;0.00;;;;;13.73;100.00;99374.25;2087995;28;46258;-53
2023/12/05 02:05:38;;;;;;;;;0.00;0.00;;;;;13.73;100.00;99376.06;2087448;28;46322;-51
2023/12/05 02:06:39;;;;;;;;;0.00;0.00;;;;;13.74;100.00;99375.97;2088932;28;46544;-51
2023/12/05 02:07:40;;;;;;;;;0.00;0.00;;;;;13.75;100.00;99369.69;2088141;28;47289;-54
2023/12/05 02:08:42;;;;;;;;;0.00;0.00;;;;;13.74;100.00;99383.97;2088944;28;46176;-55
2023/12/05 02:09:43;;;;;;;;;0.00;0.00;;;;;13.72;100.00;99375.19;2088610;28;46336;-53
2023/12/05 02:10:44;;;;;;;;;0.00;0.00;;;;;13.71;100.00;99373.44;2088480;28;46319;-48
2023/12/05 02:11:44;;;;;;;;;0.00;0.00;;;;;13.69;100.00;99375.34;2086005;28;46591;-53
2023/12/05 02:12:45;;;;;;;;;0.67;0.00;;;;;13.69;100.00;99378.00;2083625;28;45678;-55
2023/12/05 02:13:47;;;;;;;;;0.00;0.00;;;;;13.69;100.00;99382.47;2083942;28;46696;-54
2023/12/05 02:14:48;;;;;;;;;0.25;0.00;;;;;13.63;100.00;99377.50;2088468;28;46677;-49
2023/12/05 02:15:57;;;;;;;;;0.00;0.00;;;;;13.61;100.00;99385.59;2089236;28;46488;-53
2023/12/05 02:17:12;;;;;;;;;0.00;0.00;;;;;13.63;100.00;99374.84;2087642;28;46580;-50
2023/12/05 02:18:20;;;;;;;;;0.00;0.00;;;;;13.62;100.00;99378.44;2083306;28;46664;-52
2023/12/05 02:19:39;;;;;;;;;0.00;0.00;;;;;13.52;100.00;99383.44;2088411;28;46578;-52
2023/12/05 02:20:52;;;;;;;;;0.75;0.00;;;;;13.48;100.00;99385.41;2096033;28;46515;-50
2023/12/05 02:21:55;;;;;;;;;0.00;0.00;;;;;13.48;100.00;99387.22;2092500;28;46422;-49
2023/12/05 02:23:01;;;;;;;;;1.00;0.00;;;;;13.49;100.00;99384.47;2080284;28;46409;-53
2023/12/05 02:24:25;;;;;;;;;0.00;0.00;;;;;13.58;100.00;99384.88;2081691;28;46715;-51
2023/12/05 02:25:53;;;;;;;;;0.00;0.00;;;;;13.60;100.00;99388.34;2086820;28;47091;-48
2023/12/05 02:27:00;;;;;;;;;0.00;0.00;;;;;13.62;100.00;99394.44;2084634;28;46631;-53
2023/12/05 02:28:01;;;;;;;;;1.50;0.00;;;;;13.61;100.00;99395.41;2082124;28;46434;-49
2023/12/05 02:29:02;;;;;;;;;0.00;0.00;;;;;13.62;100.00;99395.31;2081093;28;46848;-55
2023/12/05 02:30:04;;;;;;;;;0.00;0.00;;;;;13.59;100.00;99395.44;2081293;28;46727;-54
2023/12/05 02:31:05;;;;;;;;;0.00;0.00;;;;;13.60;100.00;99394.53;2079941;28;46808;-52
2023/12/05 02:32:05;;;;;;;;;0.25;0.00;;;;;13.59;100.00;99399.94;2088294;28;46553;-52
2023/12/05 02:33:05;;;;;;;;;0.00;0.00;;;;;13.59;100.00;99395.44;2087515;28;46387;-53
2023/12/05 02:34:06;;;;;;;;;2.00;0.00;;;;;13.62;100.00;99402.44;2083212;28;47174;-54
2023/12/05 02:35:07;;;;;;;;;0.00;0.00;;;;;13.61;100.00;99401.59;2086427;28;46576;-51
2023/12/05 02:36:55;;;;;;;;;0.00;0.00;;;;;13.59;100.00;99403.44;2088313;28;45448;-50
2023/12/05 02:38:05;;;;;;;;;0.50;0.50;;;;;13.60;100.00;99407.00;2060912;28;47087;-52
2023/12/05 02:39:15;;;;;;;;;0.00;0.00;;;;;13.58;100.00;99414.19;2054357;28;46966;-52
2023/12/05 02:40:49;;;;;;;;;0.00;0.00;;;;;13.59;100.00;99411.44;2055416;28;46484;-51
2023/12/05 02:41:54;;;;;;;;;0.00;0.00;;;;;13.53;100.00;99406.47;2055344;28;47366;-52
2023/12/05 02:42:57;;;;;;;;;0.00;0.00;;;;;13.51;100.00;99417.22;2057623;28;46760;-48
2023/12/05 02:44:10;;;;;;;;;0.00;0.00;;;;;13.51;100.00;99416.34;2062503;28;46765;-48
2023/12/05 02:45:17;;;;;;;;;0.00;0.00;;;;;13.49;100.00;99412.91;2062450;28;46558;-53
2023/12/05 02:46:19;;;;;;;;;0.00;0.00;;;;;13.45;100.00;99420.19;2055809;28;46536;-54
2023/12/05 02:47:24;;;;;;;;;0.00;0.00;;;;;13.43;100.00;99415.91;2054555;28;46720;-53
2023/12/05 02:48:25;;;;;;;;;0.00;0.00;;;;;13.37;100.00;99418.91;2062416;28;46980;-51
2023/12/05 02:49:26;;;;;;;;;0.00;0.00;;;;;13.47;100.00;99414.81;2057280;28;46519;-49
2023/12/05 02:50:26;;;;;;;;;0.00;0.00;;;;;13.48;100.00;99419.19;2046462;28;46265;-48
2023/12/05 02:51:27;;;;;;;;;0.00;0.00;;;;;13.46;100.00;99421.06;2054259;28;47009;-51
2023/12/05 02:52:27;;;;;;;;;0.00;0.00;;;;;13.47;100.00;99421.00;2059985;28;46618;-51
2023/12/05 02:53:27;;;;;;;;;1.00;0.00;;;;;13.44;100.00;99422.94;2046286;28;46499;-50
2023/12/05 02:54:28;;;;;;;;;0.00;0.00;;;;;13.42;100.00;99423.03;2052819;28;46768;-49
2023/12/05 02:55:28;;;;;;;;;0.00;0.00;;;;;13.41;100.00;99428.44;2062578;28;46528;-54
2023/12/05 02:56:29;;;;;;;;;0.00;0.00;;;;;13.38;100.00;99431.28;2062932;28;46606;-51
2023/12/05 02:57:29;;;;;;;;;0.00;0.00;;;;;13.38;100.00;99426.81;2060235;28;46332;-51
2023/12/05 02:58:30;;;;;;;;;0.00;0.00;;;;;13.35;100.00;99423.47;2055376;28;46651;-52
2023/12/05 02:59:30;;;;;;;;;0.00;0.00;;;;;13.37;100.00;99432.22;2062132;28;46900;-52
2023/12/05 03:00:30;;;;;;;;;0.33;0.33;;;;;13.36;100.00;99427.84;2060499;28;46210;-53
2023/12/05 03:01:38;;;;;;;;;0.00;0.00;;;;;13.37;100.00;99432.22;2060717;28;46335;-51
2023/12/05 03:02:39;;;;;;;;;0.00;0.00;;;;;13.36;100.00;99427.84;2060838;28;46448;-52
2023/12/05 03:03:39;;;;;;;;;0.00;0.00;;;;;13.36;100.00;99430.50;2061312;28;46080;-52
2023/12/05 03:04:39;;;;;;;;;0.00;0.00;;;;;13.34;100.00;99425.28;2062676;28;46386;-53
2023/12/05 03:05:39;;;;;;;;;0.00;0.00;;;;;13.31;100.00;99433.41;2062666;28;46135;-52
2023/12/05 03:06:40;;;;;;;;;0.00;0.00;;;;;13.33;100.00;99439.50;2062649;28;46547;-49
2023/12/05 03:07:40;;;;;;;;;0.00;0.00;;;;;13.34;100.00;99438.59;2047533;28;46482;-52
2023/12/05 03:08:40;;;;;;;;;0.00;0.00;;;;;13.32;100.00;99439.59;2048839;28;46385;-52
2023/12/05 03:09:41;;;;;;;;;0.00;0.00;;;;;13.25;100.00;99428.41;2062444;28;46489;-54
2023/12/05 03:10:41;;;;;;;;;0.00;0.00;;;;;13.19;100.00;99421.59;2062366;28;46873;-52
2023/12/05 03:11:42;;;;;;;;;0.00;0.00;;;;;13.18;100.00;99430.53;2062431;28;46713;-52
2023/12/05 03:12:42;;;;;;;;;0.00;0.00;;;;;13.19;100.00;99426.06;2062077;28;46206;-51
2023/12/05 03:13:42;;;;;;;;;0.00;0.00;;;;;13.22;100.00;99445.44;2061884;28;46941;-53
2023/12/05 03:14:43;;;;;;;;;0.67;0.00;;;;;13.21;100.00;99438.38;2086302;28;46400;-50
2023/12/05 03:15:43;;;;;;;;;0.00;0.00;;;;;13.22;100.00;99439.25;2087624;28;46259;-49
2023/12/05 03:16:43;;;;;;;;;0.00;0.00;;;;;13.21;100.00;99442.81;2086659;28;46417;-51
2023/12/05 03:17:44;;;;;;;;;1.00;0.00;;;;;13.18;100.00;99435.84;2088375;28;46252;-51
2023/12/05 03:18:44;;;;;;;;;1.00;0.00;;;;;13.19;100.00;99447.38;2087153;28;46263;-52
2023/12/05 03:19:44;;;;;;;;;0.00;0.00;;;;;13.17;100.00;99439.44;2077974;28;46512;-53
2023/12/05 03:20:45;;;;;;;;;0.00;0.00;;;;;13.16;100.00;99439.50;2078976;28;46293;-52
2023/12/05 03:21:45;;;;;;;;;0.00;0.00;;;;;13.11;100.00;99437.09;2095068;28;46081;-54
2023/12/05 03:22:45;;;;;;;;;0.00;0.00;;;;;13.09;100.00;99433.66;2096101;28;46219;-51
2023/12/05 03:23:46;;;;;;;;;1.00;0.00;;;;;13.06;100.00;99428.47;2087995;28;45958;-51
2023/12/05 03:24:46;;;;;;;;;0.00;0.00;;;;;13.08;100.00;99444.38;2087943;28;46348;-50
2023/12/05 03:25:47;;;;;;;;;0.00;0.00;;;;;13.04;100.00;99434.81;2088301;28;46770;-54
2023/12/05 03:26:47;;;;;;;;;0.00;0.00;;;;;13.02;100.00;99439.38;2087566;28;46664;-53
2023/12/05 03:27:47;;;;;;;;;0.00;0.00;;;;;12.98;100.00;99428.03;2088317;28;46453;-52
2023/12/05 03:28:49;;;;;;;;;1.00;0.00;;;;;12.96;100.00;99433.44;2087632;28;46324;-53
2023/12/05 03:29:49;;;;;;;;;0.00;0.00;;;;;12.95;100.00;99431.69;2088516;28;46587;-51
2023/12/05 03:30:49;;;;;;;;;0.00;0.00;;;;;12.94;100.00;99427.31;2087801;28;46645;-50
2023/12/05 03:31:49;;;;;;;;;0.00;0.00;;;;;12.94;100.00;99427.31;2085894;28;46199;-50
2023/12/05 03:32:50;;;;;;;;;0.00;0.00;;;;;12.92;100.00;99425.66;2087861;28;46304;-48
2023/12/05 03:33:50;;;;;;;;;0.00;0.00;;;;;12.92;100.00;99431.84;2088317;28;46693;-49
2023/12/05 03:34:50;;;;;;;;;0.00;0.00;;;;;12.94;100.00;99424.66;2085535;28;46180;-48
2023/12/05 03:35:51;;;;;;;;;0.00;0.00;;;;;12.93;100.00;99422.94;2088316;28;46281;-51
2023/12/05 03:36:51;;;;;;;;;0.00;0.00;;;;;12.94;100.00;99429.97;2087707;28;46801;-52
2023/12/05 03:37:51;;;;;;;;;0.00;0.00;;;;;12.91;100.00;99429.28;2087895;28;46736;-52
2023/12/05 03:38:52;;;;;;;;;0.00;0.00;;;;;12.91;100.00;99431.94;2087690;28;46379;-52
2023/12/05 03:39:52;;;;;;;;;0.00;0.00;;;;;12.93;100.00;99436.25;2087965;28;46196;-50
2023/12/05 03:40:52;;;;;;;;;0.00;0.00;;;;;12.94;100.00;99431.78;2086693;28;46663;-51
2023/12/05 03:41:52;;;;;;;;;0.00;0.00;;;;;12.91;100.00;99438.13;2088005;28;46529;-53
2023/12/05 03:42:53;;;;;;;;;0.00;0.00;;;;;12.92;100.00;99429.19;2087766;28;46231;-52
2023/12/05 03:43:53;;;;;;;;;0.00;0.00;;;;;12.92;100.00;99444.31;2087837;28;46161;-51
2023/12/05 03:44:53;;;;;;;;;0.00;0.00;;;;;12.90;100.00;99427.56;2087578;28;46896;-52
2023/12/05 03:45:54;;;;;;;;;0.00;0.00;;;;;12.89;100.00;99432.03;2087275;28;46296;-53
2023/12/05 03:46:54;;;;;;;;;0.00;0.00;;;;;12.85;100.00;99427.81;2087365;28;46257;-52
2023/12/05 03:47:54;;;;;;;;;0.00;0.00;;;;;12.88;100.00;99440.94;2087395;28;46664;-55
2023/12/05 03:48:55;;;;;;;;;0.00;0.00;;;;;12.86;100.00;99432.19;2087728;28;46842;-53
2023/12/05 03:49:55;;;;;;;;;0.00;0.00;;;;;12.85;100.00;99438.47;2087613;28;46824;-54
2023/12/05 03:50:55;;;;;;;;;0.00;0.00;;;;;12.83;100.00;99429.69;2085472;28;46437;-50
2023/12/05 03:51:56;;;;;;;;;0.00;0.00;;;;;12.81;100.00;99434.22;2076008;28;46322;-52
2023/12/05 03:52:56;;;;;;;;;0.00;0.00;;;;;12.80;100.00;99434.28;2087087;28;46628;-52
2023/12/05 03:53:56;;;;;;;;;0.00;0.00;;;;;12.79;100.00;99440.56;2088153;28;46575;-52
2023/12/05 03:54:57;;;;;;;;;0.00;0.00;;;;;12.76;100.00;99444.25;2087867;28;46651;-54
2023/12/05 03:55:57;;;;;;;;;0.00;0.00;;;;;12.75;100.00;99441.66;2087771;28;46848;-53
2023/12/05 03:56:57;;;;;;;;;0.00;0.00;;;;;12.74;100.00;99445.25;2085665;28;46172;-51
2023/12/05 03:57:58;;;;;;;;;0.00;0.00;;;;;12.75;100.00;99445.19;2087687;28;46195;-51
2023/12/05 03:58:58;;;;;;;;;0.00;0.00;;;;;12.71;100.00;99445.44;2087843;28;46785;-50
2023/12/05 03:59:58;;;;;;;;;0.00;0.00;;;;;12.66;100.00;99453.63;2087790;28;46491;-50
2023/12/05 04:00:59;;;;;;;;;0.00;0.00;;;;;12.66;100.00;99458.94;2088031;28;46867;-51
2023/12/05 04:01:59;;;;;;;;;0.00;0.00;;;;;12.66;100.00;99465.13;2087484;28;47114;-52
2023/12/05 04:02:59;;;;;;;;;0.00;0.00;;;;;12.67;100.00;99458.88;2087784;28;46706;-49
2023/12/05 04:04:00;;;;;;;;;1.00;0.00;;;;;12.56;100.00;99461.19;2087680;28;46288;-52
2023/12/05 04:05:01;;;;;;;;;0.00;0.00;;;;;12.57;100.00;99457.59;2088016;28;47000;-53
2023/12/05 04:06:01;;;;;;;;;0.00;0.00;;;;;12.46;100.00;99462.63;2087767;28;46374;-51
2023/12/05 04:07:01;;;;;;;;;0.00;0.00;;;;;12.49;100.00;99461.59;2084995;28;47255;-50
2023/12/05 04:08:02;;;;;;;;;0.00;0.00;;;;;12.43;100.00;99468.06;2081963;28;46503;-50
2023/12/05 04:09:04;;;;;;;;;0.00;0.00;;;;;12.47;100.00;99471.47;2084789;28;46589;-51
2023/12/05 04:10:05;;;;;;;;;0.00;0.00;;;;;12.47;100.00;99474.13;2089522;28;46543;-52
2023/12/05 04:11:06;;;;;;;;;0.75;0.00;;;;;12.48;100.00;99479.38;2087713;28;46338;-54
2023/12/05 04:12:06;;;;;;;;;0.00;0.00;;;;;12.48;100.00;99483.81;2087905;28;46936;-52
2023/12/05 04:13:06;;;;;;;;;0.00;0.00;;;;;12.51;100.00;99471.22;2087473;28;46637;-50
2023/12/05 04:14:07;;;;;;;;;0.00;0.00;;;;;12.47;100.00;99485.63;2089479;28;46596;-52
2023/12/05 04:15:08;;;;;;;;;0.00;0.00;;;;;12.45;100.00;99478.63;2088391;28;46273;-50
2023/12/05 04:16:09;;;;;;;;;0.00;0.00;;;;;12.52;100.00;99486.25;2088659;28;46458;-49
2023/12/05 04:17:09;;;;;;;;;0.00;0.00;;;;;12.54;100.00;99473.72;2093284;28;46315;-52
2023/12/05 04:18:10;;;;;;;;;0.00;0.00;;;;;12.56;100.00;99490.47;2096420;28;46313;-50
2023/12/05 04:19:10;;;;;;;;;0.00;0.00;;;;;12.62;100.00;99484.88;2089212;28;46403;-50
2023/12/05 04:20:11;;;;;;;;;0.00;0.00;;;;;12.63;100.00;99486.59;2089220;28;46567;-52
2023/12/05 04:21:12;;;;;;;;;0.00;0.00;;;;;12.72;100.00;99492.41;2084940;28;46308;-50
2023/12/05 04:22:12;;;;;;;;;0.00;0.00;;;;;12.71;100.00;99496.88;2087772;28;46638;-56
2023/12/05 04:23:12;;;;;;;;;0.00;0.00;;;;;12.69;100.00;99498.72;2086360;28;46640;-51
2023/12/05 04:24:12;;;;;;;;;0.00;0.00;;;;;12.68;100.00;99500.50;2086014;28;46408;-54
2023/12/05 04:25:13;;;;;;;;;0.00;0.00;;;;;12.68;100.00;99499.66;2088821;28;46313;-51
2023/12/05 04:26:18;;;;;;;;;0.00;0.00;;;;;12.69;100.00;99504.03;2089030;28;46311;-52
2023/12/05 04:27:18;;;;;;;;;0.00;0.00;;;;;12.70;100.00;99500.44;2089145;28;46890;-53
2023/12/05 04:28:19;;;;;;;;;0.00;0.00;;;;;12.71;100.00;99509.31;2089088;28;46389;-54
2023/12/05 04:29:19;;;;;;;;;0.00;0.00;;;;;12.73;100.00;99500.31;2085669;28;46591;-50
2023/12/05 04:30:20;;;;;;;;;1.00;0.00;;;;;12.74;100.00;99507.34;2088981;28;45254;-51
2023/12/05 04:31:24;;;;;;;;;0.00;0.00;;;;;12.80;100.00;99506.16;2088725;28;46395;-52
2023/12/05 04:32:25;;;;;;;;;0.00;0.00;;;;;12.80;100.00;99511.50;2089175;28;46750;-53
2023/12/05 04:33:25;;;;;;;;;1.00;0.00;;;;;12.80;100.00;99498.19;2088728;28;46136;-53
2023/12/05 04:34:25;;;;;;;;;2.00;0.00;;;;;12.82;100.00;99506.94;2085452;28;46866;-52
2023/12/05 04:35:26;;;;;;;;;0.00;0.00;;;;;12.74;100.00;99507.34;2089163;28;46632;-52
2023/12/05 04:36:26;;;;;;;;;0.00;0.00;;;;;12.76;100.00;99508.13;2089771;28;46649;-50
2023/12/05 04:37:26;;;;;;;;;0.00;0.00;;;;;12.74;100.00;99512.69;2089228;28;46327;-50
2023/12/05 04:38:27;;;;;;;;;1.00;0.00;;;;;12.76;100.00;99513.47;2088967;28;46312;-53
2023/12/05 04:39:27;;;;;;;;;0.00;0.00;;;;;12.74;100.00;99517.13;2088949;28;46549;-52
2023/12/05 04:40:27;;;;;;;;;0.00;0.00;;;;;12.74;100.00;99515.34;2088692;28;46438;-54
2023/12/05 04:41:33;;;;;;;;;0.00;0.00;;;;;12.74;100.00;99515.34;2081464;28;45981;-52
2023/12/05 04:42:34;;;;;;;;;0.00;0.00;;;;;12.75;100.00;99522.38;2088215;28;46742;-51
2023/12/05 04:43:34;;;;;;;;;0.00;0.00;;;;;12.75;100.00;99513.53;2080020;28;46419;-53
2023/12/05 04:44:35;;;;;;;;;0.00;0.00;;;;;12.77;100.00;99517.84;2087596;28;46930;-52
2023/12/05 04:45:35;;;;;;;;;0.00;0.00;;;;;12.74;100.00;99518.00;2085996;28;47526;-53